SKW4213 KLAS-KLAX
Flight info
| Callsign | SKW4213 |
|---|---|
| Flight time | N/A |
| Altitude | 28000 |
| Route | RADYR2 BLAQQ SHTNR ANJLL4 |
| Aircraft | E75L/M-SDE3GILORVW/S |
Departure
| Time | 2026-05-08 01:55 |
|---|---|
| Airport | Harry Reid International Airport (KLAS) |
Arrival
| Time | N/A |
|---|---|
| Airport | Los Angeles International Airport (KLAX) |
| Time | Latitude | Longitude | Altitude | Speed | Heading |
|---|---|---|---|---|---|
| 2026-05-08 01:37 | 36.08530 | -115.13899 | 2083 ft | 0 kts | 360° |
| 2026-05-08 01:43 | 36.08521 | -115.13899 | 2083 ft | 3 kts | 360° |
| 2026-05-08 01:44 | 36.08500 | -115.13899 | 2083 ft | 3 kts | 360° |
| 2026-05-08 01:44 | 36.08484 | -115.13898 | 2084 ft | 3 kts | 347° |
| 2026-05-08 01:44 | 36.08468 | -115.13887 | 2084 ft | 3 kts | 303° |
| 2026-05-08 01:44 | 36.08463 | -115.13864 | 2085 ft | 3 kts | 271° |
| 2026-05-08 01:45 | 36.08464 | -115.13839 | 2084 ft | 3 kts | 263° |
| 2026-05-08 01:45 | 36.08466 | -115.13819 | 2084 ft | 1 kts | 269° |
| 2026-05-08 01:45 | 36.08466 | -115.13802 | 2084 ft | 3 kts | 269° |
| 2026-05-08 01:45 | 36.08466 | -115.13790 | 2084 ft | 0 kts | 269° |
| 2026-05-08 01:49 | 36.08466 | -115.13792 | 2084 ft | 2 kts | 269° |
| 2026-05-08 01:49 | 36.08467 | -115.13844 | 2084 ft | 10 kts | 272° |
| 2026-05-08 01:49 | 36.08466 | -115.13964 | 2085 ft | 18 kts | 268° |
| 2026-05-08 01:49 | 36.08414 | -115.14094 | 2090 ft | 18 kts | 224° |
| 2026-05-08 01:50 | 36.08305 | -115.14161 | 2096 ft | 19 kts | 179° |
| 2026-05-08 01:50 | 36.08158 | -115.14159 | 2103 ft | 23 kts | 180° |
| 2026-05-08 01:50 | 36.07996 | -115.14160 | 2112 ft | 24 kts | 177° |
| 2026-05-08 01:50 | 36.07867 | -115.14026 | 2117 ft | 25 kts | 135° |
| 2026-05-08 01:51 | 36.07830 | -115.13913 | 2121 ft | 15 kts | 94° |
| 2026-05-08 01:51 | 36.07827 | -115.13763 | 2121 ft | 21 kts | 89° |
| 2026-05-08 01:51 | 36.07827 | -115.13551 | 2122 ft | 28 kts | 90° |
| 2026-05-08 01:51 | 36.07827 | -115.13298 | 2122 ft | 27 kts | 89° |
| 2026-05-08 01:52 | 36.07827 | -115.13037 | 2118 ft | 31 kts | 88° |
| 2026-05-08 01:52 | 36.07826 | -115.12749 | 2114 ft | 30 kts | 89° |
| 2026-05-08 01:52 | 36.07778 | -115.12629 | 2115 ft | 13 kts | 161° |
| 2026-05-08 01:52 | 36.07744 | -115.12613 | 2116 ft | 1 kts | 158° |
| 2026-05-08 01:53 | 36.07741 | -115.12612 | 2117 ft | 1 kts | 158° |
| 2026-05-08 01:53 | 36.07740 | -115.12611 | 2117 ft | 0 kts | 158° |
| 2026-05-08 01:53 | 36.07732 | -115.12608 | 2117 ft | 4 kts | 163° |
| 2026-05-08 01:53 | 36.07682 | -115.12600 | 2120 ft | 11 kts | 176° |
| 2026-05-08 01:54 | 36.07643 | -115.12634 | 2121 ft | 3 kts | 266° |
| 2026-05-08 01:54 | 36.07643 | -115.12841 | 2119 ft | 54 kts | 270° |
| 2026-05-08 01:54 | 36.07642 | -115.13613 | 2124 ft | 124 kts | 270° |
| 2026-05-08 01:54 | 36.07659 | -115.14898 | 2334 ft | 164 kts | 273° |
| 2026-05-08 01:55 | 36.07636 | -115.16374 | 3048 ft | 177 kts | 266° |
| 2026-05-08 01:55 | 36.07604 | -115.17964 | 3646 ft | 201 kts | 276° |
| 2026-05-08 01:55 | 36.07816 | -115.19735 | 3895 ft | 208 kts | 279° |
| 2026-05-08 01:55 | 36.07779 | -115.21456 | 3834 ft | 198 kts | 256° |
| 2026-05-08 01:56 | 36.07421 | -115.23032 | 3897 ft | 184 kts | 253° |
| 2026-05-08 01:56 | 36.07065 | -115.24494 | 3908 ft | 172 kts | 250° |
| 2026-05-08 01:56 | 36.06381 | -115.25647 | 3755 ft | 170 kts | 216° |
| 2026-05-08 01:56 | 36.05382 | -115.26422 | 3768 ft | 171 kts | 208° |
| 2026-05-08 01:57 | 36.04287 | -115.27051 | 4595 ft | 170 kts | 201° |
| 2026-05-08 01:57 | 36.03171 | -115.27586 | 5425 ft | 180 kts | 201° |
| 2026-05-08 01:57 | 36.01938 | -115.28156 | 6087 ft | 198 kts | 202° |
| 2026-05-08 01:57 | 36.00601 | -115.28769 | 6859 ft | 212 kts | 201° |
| 2026-05-08 01:58 | 35.99157 | -115.29345 | 7595 ft | 225 kts | 197° |
| 2026-05-08 01:58 | 35.97587 | -115.29798 | 8333 ft | 237 kts | 194° |
| 2026-05-08 01:58 | 35.95974 | -115.30201 | 9167 ft | 243 kts | 194° |
| 2026-05-08 01:58 | 35.94302 | -115.30614 | 9978 ft | 247 kts | 193° |
| 2026-05-08 01:59 | 35.92595 | -115.31033 | 10686 ft | 253 kts | 193° |
| 2026-05-08 01:59 | 35.90851 | -115.31459 | 11386 ft | 258 kts | 193° |
| 2026-05-08 01:59 | 35.89064 | -115.31893 | 12079 ft | 264 kts | 192° |
| 2026-05-08 01:59 | 35.87246 | -115.32342 | 12746 ft | 269 kts | 192° |
| 2026-05-08 02:00 | 35.85457 | -115.32782 | 12866 ft | 255 kts | 191° |
| 2026-05-08 02:00 | 35.83665 | -115.33216 | 12963 ft | 271 kts | 191° |
| 2026-05-08 02:00 | 35.82029 | -115.33619 | 13018 ft | 276 kts | 192° |
| 2026-05-08 02:00 | 35.80154 | -115.34080 | 13038 ft | 273 kts | 191° |
| 2026-05-08 02:01 | 35.78285 | -115.34538 | 13038 ft | 275 kts | 191° |
| 2026-05-08 02:01 | 35.76413 | -115.34996 | 13029 ft | 275 kts | 191° |
| 2026-05-08 02:01 | 35.74575 | -115.35447 | 13032 ft | 274 kts | 191° |
| 2026-05-08 02:01 | 35.72697 | -115.35906 | 13041 ft | 276 kts | 191° |
| 2026-05-08 02:02 | 35.70822 | -115.36365 | 13045 ft | 275 kts | 192° |
| 2026-05-08 02:02 | 35.68961 | -115.36820 | 13036 ft | 272 kts | 192° |
| 2026-05-08 02:02 | 35.67091 | -115.37281 | 13034 ft | 276 kts | 193° |
| 2026-05-08 02:02 | 35.65223 | -115.37743 | 13039 ft | 271 kts | 191° |
| 2026-05-08 02:03 | 35.63363 | -115.38165 | 13034 ft | 272 kts | 189° |
| 2026-05-08 02:03 | 35.61458 | -115.38447 | 13425 ft | 275 kts | 185° |
| 2026-05-08 02:03 | 35.59559 | -115.38605 | 14330 ft | 274 kts | 180° |
| 2026-05-08 02:03 | 35.57622 | -115.38540 | 14988 ft | 282 kts | 176° |
| 2026-05-08 02:04 | 35.55682 | -115.38414 | 15741 ft | 284 kts | 176° |
| 2026-05-08 02:04 | 35.53699 | -115.38273 | 16463 ft | 288 kts | 176° |
| 2026-05-08 02:04 | 35.51682 | -115.38124 | 17180 ft | 292 kts | 176° |
| 2026-05-08 02:04 | 35.49642 | -115.37976 | 17883 ft | 296 kts | 176° |
| 2026-05-08 02:05 | 35.47575 | -115.37821 | 18550 ft | 300 kts | 177° |
| 2026-05-08 02:05 | 35.45483 | -115.38001 | 19166 ft | 304 kts | 191° |
| 2026-05-08 02:05 | 35.43427 | -115.38645 | 19815 ft | 307 kts | 199° |
| 2026-05-08 02:05 | 35.41412 | -115.39542 | 20492 ft | 310 kts | 202° |
| 2026-05-08 02:06 | 35.39431 | -115.40628 | 21146 ft | 314 kts | 207° |
| 2026-05-08 02:06 | 35.37467 | -115.41858 | 21776 ft | 319 kts | 208° |
| 2026-05-08 02:06 | 35.35484 | -115.43118 | 22433 ft | 323 kts | 208° |
| 2026-05-08 02:06 | 35.33510 | -115.44379 | 23063 ft | 327 kts | 208° |
| 2026-05-08 02:07 | 35.31481 | -115.45676 | 23670 ft | 331 kts | 208° |
| 2026-05-08 02:07 | 35.29432 | -115.46984 | 24225 ft | 333 kts | 208° |
| 2026-05-08 02:07 | 35.27369 | -115.48300 | 24768 ft | 336 kts | 208° |
| 2026-05-08 02:07 | 35.25290 | -115.49626 | 25323 ft | 338 kts | 207° |
| 2026-05-08 02:08 | 35.23193 | -115.50962 | 25873 ft | 341 kts | 208° |
| 2026-05-08 02:08 | 35.21080 | -115.52308 | 26417 ft | 344 kts | 207° |
| 2026-05-08 02:08 | 35.18951 | -115.53664 | 26948 ft | 346 kts | 207° |
| 2026-05-08 02:08 | 35.16832 | -115.55011 | 27444 ft | 349 kts | 207° |
| 2026-05-08 02:09 | 35.14767 | -115.56505 | 27573 ft | 341 kts | 216° |
| 2026-05-08 02:09 | 35.12904 | -115.58240 | 27512 ft | 333 kts | 220° |
| 2026-05-08 02:09 | 35.11132 | -115.60026 | 27463 ft | 331 kts | 221° |
| 2026-05-08 02:09 | 35.09348 | -115.61903 | 27490 ft | 348 kts | 224° |
| 2026-05-08 02:10 | 35.07599 | -115.64042 | 27570 ft | 365 kts | 227° |
| 2026-05-08 02:10 | 35.05797 | -115.66322 | 27627 ft | 381 kts | 227° |
| 2026-05-08 02:10 | 35.03929 | -115.68710 | 27751 ft | 396 kts | 228° |
| 2026-05-08 02:10 | 35.02028 | -115.71135 | 27895 ft | 388 kts | 227° |
| 2026-05-08 02:11 | 35.00137 | -115.73547 | 27991 ft | 401 kts | 227° |
| 2026-05-08 02:11 | 34.98214 | -115.76000 | 28024 ft | 409 kts | 227° |
| 2026-05-08 02:11 | 34.94281 | -115.81009 | 27992 ft | 408 kts | 227° |
| 2026-05-08 02:12 | 34.92318 | -115.83506 | 27985 ft | 408 kts | 227° |
| 2026-05-08 02:12 | 34.90357 | -115.86000 | 27991 ft | 408 kts | 227° |
| 2026-05-08 02:12 | 34.88392 | -115.88496 | 27987 ft | 408 kts | 227° |
| 2026-05-08 02:12 | 34.86428 | -115.90989 | 27973 ft | 408 kts | 227° |
| 2026-05-08 02:13 | 34.84486 | -115.93453 | 27974 ft | 408 kts | 227° |
| 2026-05-08 02:13 | 34.82523 | -115.95942 | 27964 ft | 408 kts | 227° |
| 2026-05-08 02:13 | 34.80557 | -115.98431 | 27982 ft | 408 kts | 227° |
| 2026-05-08 02:13 | 34.78567 | -116.00925 | 27979 ft | 411 kts | 227° |